sensor_id;sensor_type;location;lat;lon;timestamp;P1;durP1;ratioP1;P2;durP2;ratioP2
77705;SDS011;66874;45.274;5.880;2024-03-06T00:01:38;6.57;;;4.28;;
77705;SDS011;66874;45.274;5.880;2024-03-06T00:04:04;6.22;;;3.80;;
77705;SDS011;66874;45.274;5.880;2024-03-06T00:06:29;8.13;;;4.43;;
77705;SDS011;66874;45.274;5.880;2024-03-06T00:08:55;8.60;;;4.53;;
77705;SDS011;66874;45.274;5.880;2024-03-06T00:11:21;9.10;;;4.53;;
77705;SDS011;66874;45.274;5.880;2024-03-06T00:13:46;5.45;;;3.53;;
77705;SDS011;66874;45.274;5.880;2024-03-06T00:16:13;8.50;;;4.15;;
77705;SDS011;66874;45.274;5.880;2024-03-06T00:18:38;8.88;;;4.55;;
77705;SDS011;66874;45.274;5.880;2024-03-06T00:21:04;12.50;;;4.47;;
77705;SDS011;66874;45.274;5.880;2024-03-06T00:23:29;11.40;;;4.20;;
77705;SDS011;66874;45.274;5.880;2024-03-06T00:25:55;7.35;;;4.07;;
77705;SDS011;66874;45.274;5.880;2024-03-06T00:28:21;8.25;;;3.97;;
77705;SDS011;66874;45.274;5.880;2024-03-06T00:30:46;6.95;;;4.28;;
77705;SDS011;66874;45.274;5.880;2024-03-06T00:33:12;6.88;;;3.80;;
77705;SDS011;66874;45.274;5.880;2024-03-06T00:35:37;4.80;;;3.50;;
77705;SDS011;66874;45.274;5.880;2024-03-06T00:38:03;7.47;;;3.38;;
77705;SDS011;66874;45.274;5.880;2024-03-06T00:40:28;4.88;;;3.38;;
77705;SDS011;66874;45.274;5.880;2024-03-06T00:42:57;6.80;;;3.78;;
77705;SDS011;66874;45.274;5.880;2024-03-06T00:45:23;8.90;;;3.70;;
77705;SDS011;66874;45.274;5.880;2024-03-06T00:47:49;7.30;;;2.80;;
77705;SDS011;66874;45.274;5.880;2024-03-06T00:50:14;4.53;;;2.80;;
77705;SDS011;66874;45.274;5.880;2024-03-06T00:52:41;5.43;;;3.00;;
77705;SDS011;66874;45.274;5.880;2024-03-06T00:55:07;4.40;;;2.90;;
77705;SDS011;66874;45.274;5.880;2024-03-06T00:57:33;4.30;;;2.80;;
77705;SDS011;66874;45.274;5.880;2024-03-06T00:59:59;5.05;;;2.38;;
77705;SDS011;66874;45.274;5.880;2024-03-06T01:02:25;4.70;;;2.55;;
77705;SDS011;66874;45.274;5.880;2024-03-06T01:04:50;4.25;;;2.15;;
77705;SDS011;66874;45.274;5.880;2024-03-06T01:07:15;3.90;;;2.13;;
77705;SDS011;66874;45.274;5.880;2024-03-06T01:09:41;5.18;;;2.60;;
77705;SDS011;66874;45.274;5.880;2024-03-06T01:12:06;2.63;;;2.15;;
77705;SDS011;66874;45.274;5.880;2024-03-06T01:14:32;3.67;;;2.40;;
77705;SDS011;66874;45.274;5.880;2024-03-06T01:16:57;5.97;;;3.00;;
77705;SDS011;66874;45.274;5.880;2024-03-06T01:19:23;4.68;;;2.50;;
77705;SDS011;66874;45.274;5.880;2024-03-06T01:21:48;5.05;;;2.65;;
77705;SDS011;66874;45.274;5.880;2024-03-06T01:24:14;6.82;;;2.90;;
77705;SDS011;66874;45.274;5.880;2024-03-06T01:26:39;3.75;;;2.40;;
77705;SDS011;66874;45.274;5.880;2024-03-06T01:29:05;4.70;;;2.67;;
77705;SDS011;66874;45.274;5.880;2024-03-06T01:31:31;3.60;;;2.40;;
77705;SDS011;66874;45.274;5.880;2024-03-06T01:33:56;3.38;;;2.03;;
77705;SDS011;66874;45.274;5.880;2024-03-06T01:36:22;6.28;;;2.78;;
77705;SDS011;66874;45.274;5.880;2024-03-06T01:38:47;3.80;;;2.20;;
77705;SDS011;66874;45.274;5.880;2024-03-06T01:41:14;4.32;;;2.13;;
77705;SDS011;66874;45.274;5.880;2024-03-06T01:43:40;4.15;;;2.10;;
77705;SDS011;66874;45.274;5.880;2024-03-06T01:46:06;3.60;;;2.00;;
77705;SDS011;66874;45.274;5.880;2024-03-06T01:48:31;3.38;;;2.20;;
77705;SDS011;66874;45.274;5.880;2024-03-06T01:50:57;5.22;;;2.35;;
77705;SDS011;66874;45.274;5.880;2024-03-06T01:53:26;2.60;;;1.80;;
77705;SDS011;66874;45.274;5.880;2024-03-06T01:55:53;3.70;;;2.13;;
77705;SDS011;66874;45.274;5.880;2024-03-06T01:58:19;4.25;;;1.80;;
77705;SDS011;66874;45.274;5.880;2024-03-06T02:00:46;4.78;;;2.15;;
77705;SDS011;66874;45.274;5.880;2024-03-06T02:03:12;2.30;;;1.52;;
77705;SDS011;66874;45.274;5.880;2024-03-06T02:05:37;5.80;;;1.83;;
77705;SDS011;66874;45.274;5.880;2024-03-06T02:08:03;2.97;;;1.80;;
77705;SDS011;66874;45.274;5.880;2024-03-06T02:10:30;5.45;;;1.75;;
77705;SDS011;66874;45.274;5.880;2024-03-06T02:12:55;2.45;;;1.45;;
77705;SDS011;66874;45.274;5.880;2024-03-06T02:15:20;2.42;;;1.48;;
77705;SDS011;66874;45.274;5.880;2024-03-06T02:17:46;4.40;;;1.73;;
77705;SDS011;66874;45.274;5.880;2024-03-06T02:20:11;2.45;;;1.45;;
77705;SDS011;66874;45.274;5.880;2024-03-06T02:22:39;2.53;;;1.67;;
77705;SDS011;66874;45.274;5.880;2024-03-06T02:25:07;2.65;;;1.65;;
77705;SDS011;66874;45.274;5.880;2024-03-06T02:27:34;2.20;;;1.75;;
77705;SDS011;66874;45.274;5.880;2024-03-06T02:29:59;2.38;;;1.80;;
77705;SDS011;66874;45.274;5.880;2024-03-06T02:32:24;2.53;;;1.58;;
77705;SDS011;66874;45.274;5.880;2024-03-06T02:34:50;3.53;;;1.88;;
77705;SDS011;66874;45.274;5.880;2024-03-06T02:37:16;2.78;;;1.73;;
77705;SDS011;66874;45.274;5.880;2024-03-06T02:39:41;3.13;;;1.58;;
77705;SDS011;66874;45.274;5.880;2024-03-06T02:42:06;2.97;;;1.65;;
77705;SDS011;66874;45.274;5.880;2024-03-06T02:44:32;2.92;;;1.40;;
77705;SDS011;66874;45.274;5.880;2024-03-06T02:46:58;2.72;;;1.00;;
77705;SDS011;66874;45.274;5.880;2024-03-06T02:49:24;1.30;;;0.98;;
77705;SDS011;66874;45.274;5.880;2024-03-06T02:51:49;2.00;;;1.20;;
77705;SDS011;66874;45.274;5.880;2024-03-06T02:54:15;2.03;;;1.40;;
77705;SDS011;66874;45.274;5.880;2024-03-06T02:56:40;2.58;;;1.45;;
77705;SDS011;66874;45.274;5.880;2024-03-06T02:59:06;3.17;;;1.35;;
77705;SDS011;66874;45.274;5.880;2024-03-06T03:01:32;3.05;;;1.38;;
77705;SDS011;66874;45.274;5.880;2024-03-06T03:03:57;1.45;;;0.90;;
77705;SDS011;66874;45.274;5.880;2024-03-06T03:06:23;2.38;;;1.20;;
77705;SDS011;66874;45.274;5.880;2024-03-06T03:08:49;2.05;;;1.10;;
77705;SDS011;66874;45.274;5.880;2024-03-06T03:11:14;2.63;;;1.40;;
77705;SDS011;66874;45.274;5.880;2024-03-06T03:13:40;1.77;;;1.20;;
77705;SDS011;66874;45.274;5.880;2024-03-06T03:16:06;2.22;;;1.50;;
77705;SDS011;66874;45.274;5.880;2024-03-06T03:18:32;2.08;;;1.30;;
77705;SDS011;66874;45.274;5.880;2024-03-06T03:20:57;2.33;;;0.88;;
77705;SDS011;66874;45.274;5.880;2024-03-06T03:23:23;1.75;;;1.30;;
77705;SDS011;66874;45.274;5.880;2024-03-06T03:25:48;0.85;;;0.85;;
77705;SDS011;66874;45.274;5.880;2024-03-06T03:28:14;1.52;;;0.88;;
77705;SDS011;66874;45.274;5.880;2024-03-06T03:30:40;2.83;;;0.88;;
77705;SDS011;66874;45.274;5.880;2024-03-06T03:33:09;1.33;;;0.80;;
77705;SDS011;66874;45.274;5.880;2024-03-06T03:35:34;1.35;;;1.23;;
77705;SDS011;66874;45.274;5.880;2024-03-06T03:37:59;1.63;;;1.00;;
77705;SDS011;66874;45.274;5.880;2024-03-06T03:40:25;1.77;;;1.05;;
77705;SDS011;66874;45.274;5.880;2024-03-06T03:42:50;1.80;;;0.90;;
77705;SDS011;66874;45.274;5.880;2024-03-06T03:45:15;1.52;;;0.82;;
77705;SDS011;66874;45.274;5.880;2024-03-06T03:47:41;1.85;;;0.93;;
77705;SDS011;66874;45.274;5.880;2024-03-06T03:50:08;1.23;;;1.00;;
77705;SDS011;66874;45.274;5.880;2024-03-06T03:52:34;2.22;;;1.10;;
77705;SDS011;66874;45.274;5.880;2024-03-06T03:54:59;2.08;;;1.15;;
77705;SDS011;66874;45.274;5.880;2024-03-06T03:57:25;1.60;;;1.00;;
77705;SDS011;66874;45.274;5.880;2024-03-06T03:59:50;1.80;;;1.20;;
77705;SDS011;66874;45.274;5.880;2024-03-06T04:02:16;1.48;;;0.80;;
77705;SDS011;66874;45.274;5.880;2024-03-06T04:04:42;1.33;;;0.80;;
77705;SDS011;66874;45.274;5.880;2024-03-06T04:07:07;1.10;;;0.80;;
77705;SDS011;66874;45.274;5.880;2024-03-06T04:09:33;0.77;;;0.68;;
77705;SDS011;66874;45.274;5.880;2024-03-06T04:12:02;1.30;;;0.70;;
77705;SDS011;66874;45.274;5.880;2024-03-06T04:14:28;1.17;;;0.80;;
77705;SDS011;66874;45.274;5.880;2024-03-06T04:16:55;1.45;;;0.95;;
77705;SDS011;66874;45.274;5.880;2024-03-06T04:19:20;0.93;;;0.82;;
77705;SDS011;66874;45.274;5.880;2024-03-06T04:21:46;1.13;;;0.68;;
77705;SDS011;66874;45.274;5.880;2024-03-06T04:24:11;1.20;;;0.88;;
77705;SDS011;66874;45.274;5.880;2024-03-06T04:26:36;1.40;;;1.30;;
77705;SDS011;66874;45.274;5.880;2024-03-06T04:29:02;1.13;;;1.00;;
77705;SDS011;66874;45.274;5.880;2024-03-06T04:31:28;1.27;;;0.85;;
77705;SDS011;66874;45.274;5.880;2024-03-06T04:33:53;1.65;;;0.90;;
77705;SDS011;66874;45.274;5.880;2024-03-06T04:36:19;1.30;;;0.77;;
77705;SDS011;66874;45.274;5.880;2024-03-06T04:38:44;1.50;;;0.77;;
77705;SDS011;66874;45.274;5.880;2024-03-06T04:41:09;1.55;;;1.13;;
77705;SDS011;66874;45.274;5.880;2024-03-06T04:43:35;0.93;;;0.80;;
77705;SDS011;66874;45.274;5.880;2024-03-06T04:46:01;1.00;;;0.77;;
77705;SDS011;66874;45.274;5.880;2024-03-06T04:48:26;1.83;;;0.90;;
77705;SDS011;66874;45.274;5.880;2024-03-06T04:50:52;1.92;;;0.93;;
77705;SDS011;66874;45.274;5.880;2024-03-06T04:53:18;4.90;;;1.20;;
77705;SDS011;66874;45.274;5.880;2024-03-06T04:55:45;0.98;;;0.73;;
77705;SDS011;66874;45.274;5.880;2024-03-06T04:58:10;2.17;;;1.08;;
77705;SDS011;66874;45.274;5.880;2024-03-06T05:00:36;1.00;;;0.80;;
77705;SDS011;66874;45.274;5.880;2024-03-06T05:03:01;1.08;;;0.90;;
77705;SDS011;66874;45.274;5.880;2024-03-06T05:05:27;1.30;;;0.80;;
77705;SDS011;66874;45.274;5.880;2024-03-06T05:07:52;1.80;;;1.00;;
77705;SDS011;66874;45.274;5.880;2024-03-06T05:10:18;2.72;;;1.35;;
77705;SDS011;66874;45.274;5.880;2024-03-06T05:12:43;1.63;;;0.90;;
77705;SDS011;66874;45.274;5.880;2024-03-06T05:15:09;2.17;;;1.23;;
77705;SDS011;66874;45.274;5.880;2024-03-06T05:17:35;1.77;;;1.17;;
77705;SDS011;66874;45.274;5.880;2024-03-06T05:20:01;3.88;;;1.77;;
77705;SDS011;66874;45.274;5.880;2024-03-06T05:22:29;3.67;;;2.03;;
77705;SDS011;66874;45.274;5.880;2024-03-06T05:24:54;3.20;;;1.88;;
77705;SDS011;66874;45.274;5.880;2024-03-06T05:27:20;2.45;;;1.98;;
77705;SDS011;66874;45.274;5.880;2024-03-06T05:29:46;4.38;;;2.10;;
77705;SDS011;66874;45.274;5.880;2024-03-06T05:32:11;4.68;;;2.38;;
77705;SDS011;66874;45.274;5.880;2024-03-06T05:34:37;4.82;;;1.75;;
77705;SDS011;66874;45.274;5.880;2024-03-06T05:37:02;3.33;;;1.65;;
77705;SDS011;66874;45.274;5.880;2024-03-06T05:39:31;4.95;;;2.20;;
77705;SDS011;66874;45.274;5.880;2024-03-06T05:42:00;6.65;;;2.47;;
77705;SDS011;66874;45.274;5.880;2024-03-06T05:44:30;5.03;;;2.63;;
77705;SDS011;66874;45.274;5.880;2024-03-06T05:46:57;3.88;;;2.20;;
77705;SDS011;66874;45.274;5.880;2024-03-06T05:49:23;3.55;;;2.10;;
77705;SDS011;66874;45.274;5.880;2024-03-06T05:51:48;4.10;;;2.40;;
77705;SDS011;66874;45.274;5.880;2024-03-06T05:54:14;4.38;;;2.20;;
77705;SDS011;66874;45.274;5.880;2024-03-06T05:56:39;3.58;;;1.65;;
77705;SDS011;66874;45.274;5.880;2024-03-06T05:59:07;5.65;;;1.67;;
77705;SDS011;66874;45.274;5.880;2024-03-06T06:01:33;3.05;;;1.85;;
77705;SDS011;66874;45.274;5.880;2024-03-06T06:04:00;3.25;;;2.15;;
77705;SDS011;66874;45.274;5.880;2024-03-06T06:06:26;4.78;;;2.28;;
77705;SDS011;66874;45.274;5.880;2024-03-06T06:08:52;3.17;;;1.80;;
77705;SDS011;66874;45.274;5.880;2024-03-06T06:11:17;3.58;;;2.30;;
77705;SDS011;66874;45.274;5.880;2024-03-06T06:13:42;3.95;;;2.33;;
77705;SDS011;66874;45.274;5.880;2024-03-06T06:16:08;3.60;;;2.08;;
77705;SDS011;66874;45.274;5.880;2024-03-06T06:18:33;4.80;;;1.92;;
77705;SDS011;66874;45.274;5.880;2024-03-06T06:20:59;3.92;;;1.60;;
77705;SDS011;66874;45.274;5.880;2024-03-06T06:23:24;2.95;;;1.88;;
77705;SDS011;66874;45.274;5.880;2024-03-06T06:25:50;9.85;;;2.00;;
77705;SDS011;66874;45.274;5.880;2024-03-06T06:28:16;3.40;;;2.42;;
77705;SDS011;66874;45.274;5.880;2024-03-06T06:30:41;6.65;;;3.63;;
77705;SDS011;66874;45.274;5.880;2024-03-06T06:33:07;6.63;;;3.17;;
77705;SDS011;66874;45.274;5.880;2024-03-06T06:35:33;6.78;;;2.83;;
77705;SDS011;66874;45.274;5.880;2024-03-06T06:37:59;3.67;;;2.63;;
77705;SDS011;66874;45.274;5.880;2024-03-06T06:40:25;4.03;;;2.20;;
77705;SDS011;66874;45.274;5.880;2024-03-06T06:42:51;4.22;;;2.65;;
77705;SDS011;66874;45.274;5.880;2024-03-06T06:45:17;5.68;;;3.05;;
77705;SDS011;66874;45.274;5.880;2024-03-06T06:47:47;5.55;;;3.80;;
77705;SDS011;66874;45.274;5.880;2024-03-06T06:50:13;6.85;;;2.90;;
77705;SDS011;66874;45.274;5.880;2024-03-06T06:52:39;4.32;;;2.63;;
77705;SDS011;66874;45.274;5.880;2024-03-06T06:55:05;5.28;;;3.05;;
77705;SDS011;66874;45.274;5.880;2024-03-06T06:57:31;5.40;;;3.58;;
77705;SDS011;66874;45.274;5.880;2024-03-06T07:00:00;6.82;;;4.93;;
77705;SDS011;66874;45.274;5.880;2024-03-06T07:02:36;7.75;;;3.90;;
77705;SDS011;66874;45.274;5.880;2024-03-06T07:05:04;6.22;;;3.88;;
77705;SDS011;66874;45.274;5.880;2024-03-06T07:07:30;9.10;;;4.50;;
77705;SDS011;66874;45.274;5.880;2024-03-06T07:09:56;5.85;;;3.92;;
77705;SDS011;66874;45.274;5.880;2024-03-06T07:12:21;6.30;;;3.75;;
77705;SDS011;66874;45.274;5.880;2024-03-06T07:14:47;6.50;;;3.88;;
77705;SDS011;66874;45.274;5.880;2024-03-06T07:17:12;5.07;;;3.42;;
77705;SDS011;66874;45.274;5.880;2024-03-06T07:19:38;5.75;;;3.58;;
77705;SDS011;66874;45.274;5.880;2024-03-06T07:22:04;5.88;;;3.45;;
77705;SDS011;66874;45.274;5.880;2024-03-06T07:24:30;5.43;;;4.15;;
77705;SDS011;66874;45.274;5.880;2024-03-06T07:26:55;5.88;;;3.55;;
77705;SDS011;66874;45.274;5.880;2024-03-06T07:29:20;6.75;;;4.30;;
77705;SDS011;66874;45.274;5.880;2024-03-06T07:31:46;6.80;;;4.00;;
77705;SDS011;66874;45.274;5.880;2024-03-06T07:34:12;6.80;;;5.05;;
77705;SDS011;66874;45.274;5.880;2024-03-06T07:36:38;8.02;;;4.93;;
77705;SDS011;66874;45.274;5.880;2024-03-06T07:39:03;14.38;;;5.10;;
77705;SDS011;66874;45.274;5.880;2024-03-06T07:41:29;10.05;;;5.68;;
77705;SDS011;66874;45.274;5.880;2024-03-06T07:43:56;8.20;;;5.00;;
77705;SDS011;66874;45.274;5.880;2024-03-06T07:46:21;9.75;;;5.63;;
77705;SDS011;66874;45.274;5.880;2024-03-06T07:48:47;8.40;;;5.65;;
77705;SDS011;66874;45.274;5.880;2024-03-06T07:51:14;10.10;;;5.95;;
77705;SDS011;66874;45.274;5.880;2024-03-06T07:53:39;7.85;;;5.43;;
77705;SDS011;66874;45.274;5.880;2024-03-06T07:56:05;9.00;;;5.32;;
77705;SDS011;66874;45.274;5.880;2024-03-06T07:58:30;8.02;;;5.22;;
77705;SDS011;66874;45.274;5.880;2024-03-06T08:00:56;8.52;;;4.80;;
77705;SDS011;66874;45.274;5.880;2024-03-06T08:03:22;8.57;;;4.75;;
77705;SDS011;66874;45.274;5.880;2024-03-06T08:05:52;9.30;;;5.00;;
77705;SDS011;66874;45.274;5.880;2024-03-06T08:08:20;6.03;;;4.32;;
77705;SDS011;66874;45.274;5.880;2024-03-06T08:10:46;6.53;;;3.95;;
77705;SDS011;66874;45.274;5.880;2024-03-06T08:13:11;8.07;;;5.07;;
77705;SDS011;66874;45.274;5.880;2024-03-06T08:15:37;8.43;;;4.93;;
77705;SDS011;66874;45.274;5.880;2024-03-06T08:18:02;14.82;;;7.97;;
77705;SDS011;66874;45.274;5.880;2024-03-06T08:20:31;12.70;;;6.50;;
77705;SDS011;66874;45.274;5.880;2024-03-06T08:22:56;8.15;;;5.28;;
77705;SDS011;66874;45.274;5.880;2024-03-06T08:25:22;12.30;;;5.07;;
77705;SDS011;66874;45.274;5.880;2024-03-06T08:27:48;8.68;;;5.43;;
77705;SDS011;66874;45.274;5.880;2024-03-06T08:30:13;9.38;;;5.15;;
77705;SDS011;66874;45.274;5.880;2024-03-06T08:32:39;8.40;;;5.40;;
77705;SDS011;66874;45.274;5.880;2024-03-06T08:35:04;8.77;;;5.53;;
77705;SDS011;66874;45.274;5.880;2024-03-06T08:37:31;7.43;;;4.37;;
77705;SDS011;66874;45.274;5.880;2024-03-06T08:39:59;7.40;;;4.63;;
77705;SDS011;66874;45.274;5.880;2024-03-06T08:42:25;7.10;;;4.60;;
77705;SDS011;66874;45.274;5.880;2024-03-06T08:44:52;6.28;;;3.92;;
77705;SDS011;66874;45.274;5.880;2024-03-06T08:47:17;6.57;;;4.35;;
77705;SDS011;66874;45.274;5.880;2024-03-06T08:49:42;6.72;;;3.13;;
77705;SDS011;66874;45.274;5.880;2024-03-06T08:52:08;9.23;;;4.30;;
77705;SDS011;66874;45.274;5.880;2024-03-06T08:54:35;7.60;;;4.18;;
77705;SDS011;66874;45.274;5.880;2024-03-06T08:57:00;8.05;;;3.72;;
77705;SDS011;66874;45.274;5.880;2024-03-06T08:59:27;10.55;;;4.25;;
77705;SDS011;66874;45.274;5.880;2024-03-06T09:01:53;6.78;;;3.33;;
77705;SDS011;66874;45.274;5.880;2024-03-06T09:04:20;5.80;;;2.78;;
77705;SDS011;66874;45.274;5.880;2024-03-06T09:06:46;5.13;;;3.88;;
77705;SDS011;66874;45.274;5.880;2024-03-06T09:09:11;7.07;;;3.90;;
77705;SDS011;66874;45.274;5.880;2024-03-06T09:11:40;7.43;;;4.47;;
77705;SDS011;66874;45.274;5.880;2024-03-06T09:14:05;8.13;;;3.97;;
77705;SDS011;66874;45.274;5.880;2024-03-06T09:16:31;11.63;;;5.72;;
77705;SDS011;66874;45.274;5.880;2024-03-06T09:18:56;21.17;;;3.83;;
77705;SDS011;66874;45.274;5.880;2024-03-06T09:21:21;6.57;;;4.00;;
77705;SDS011;66874;45.274;5.880;2024-03-06T09:23:47;8.35;;;4.25;;
77705;SDS011;66874;45.274;5.880;2024-03-06T09:26:16;5.82;;;3.83;;
77705;SDS011;66874;45.274;5.880;2024-03-06T09:28:41;5.22;;;3.42;;
77705;SDS011;66874;45.274;5.880;2024-03-06T09:31:07;8.05;;;4.68;;
77705;SDS011;66874;45.274;5.880;2024-03-06T09:33:32;10.27;;;5.95;;
77705;SDS011;66874;45.274;5.880;2024-03-06T09:35:58;5.05;;;3.28;;
77705;SDS011;66874;45.274;5.880;2024-03-06T09:38:24;4.38;;;3.20;;
77705;SDS011;66874;45.274;5.880;2024-03-06T09:40:49;4.05;;;2.88;;
77705;SDS011;66874;45.274;5.880;2024-03-06T09:43:16;5.30;;;3.03;;
77705;SDS011;66874;45.274;5.880;2024-03-06T09:45:43;8.82;;;4.13;;
77705;SDS011;66874;45.274;5.880;2024-03-06T09:48:13;4.47;;;3.00;;
77705;SDS011;66874;45.274;5.880;2024-03-06T09:50:40;3.88;;;3.00;;
77705;SDS011;66874;45.274;5.880;2024-03-06T09:53:10;4.30;;;2.92;;
77705;SDS011;66874;45.274;5.880;2024-03-06T09:55:39;4.30;;;2.40;;
77705;SDS011;66874;45.274;5.880;2024-03-06T09:58:07;2.22;;;1.70;;
77705;SDS011;66874;45.274;5.880;2024-03-06T10:00:34;2.97;;;1.70;;
77705;SDS011;66874;45.274;5.880;2024-03-06T10:03:00;4.80;;;2.15;;
77705;SDS011;66874;45.274;5.880;2024-03-06T10:05:30;4.25;;;2.28;;
77705;SDS011;66874;45.274;5.880;2024-03-06T10:07:57;3.72;;;2.00;;
77705;SDS011;66874;45.274;5.880;2024-03-06T10:10:24;4.37;;;1.93;;
77705;SDS011;66874;45.274;5.880;2024-03-06T10:12:50;3.45;;;1.80;;
77705;SDS011;66874;45.274;5.880;2024-03-06T10:15:16;3.10;;;1.85;;
77705;SDS011;66874;45.274;5.880;2024-03-06T10:17:41;2.08;;;1.88;;
77705;SDS011;66874;45.274;5.880;2024-03-06T10:20:16;2.22;;;1.50;;
77705;SDS011;66874;45.274;5.880;2024-03-06T10:22:47;1.45;;;1.20;;
77705;SDS011;66874;45.274;5.880;2024-03-06T10:25:14;2.75;;;1.55;;
77705;SDS011;66874;45.274;5.880;2024-03-06T10:27:39;2.78;;;1.42;;
77705;SDS011;66874;45.274;5.880;2024-03-06T10:30:05;2.28;;;1.02;;
77705;SDS011;66874;45.274;5.880;2024-03-06T10:32:36;3.22;;;1.27;;
77705;SDS011;66874;45.274;5.880;2024-03-06T10:35:01;2.38;;;1.00;;
77705;SDS011;66874;45.274;5.880;2024-03-06T10:37:28;3.95;;;1.65;;
77705;SDS011;66874;45.274;5.880;2024-03-06T10:39:54;3.70;;;1.00;;
77705;SDS011;66874;45.274;5.880;2024-03-06T10:42:23;1.95;;;1.08;;
77705;SDS011;66874;45.274;5.880;2024-03-06T10:44:53;2.83;;;1.38;;
77705;SDS011;66874;45.274;5.880;2024-03-06T10:47:23;1.77;;;0.98;;
77705;SDS011;66874;45.274;5.880;2024-03-06T10:49:51;2.45;;;1.10;;
77705;SDS011;66874;45.274;5.880;2024-03-06T10:52:19;3.13;;;1.17;;
77705;SDS011;66874;45.274;5.880;2024-03-06T10:54:44;1.45;;;0.77;;
77705;SDS011;66874;45.274;5.880;2024-03-06T10:57:13;2.53;;;0.60;;
77705;SDS011;66874;45.274;5.880;2024-03-06T10:59:39;1.30;;;0.50;;
77705;SDS011;66874;45.274;5.880;2024-03-06T11:04:33;0.73;;;0.30;;
77705;SDS011;66874;45.274;5.880;2024-03-06T11:06:59;1.02;;;0.32;;
77705;SDS011;66874;45.274;5.880;2024-03-06T11:09:32;5.00;;;1.10;;
77705;SDS011;66874;45.274;5.880;2024-03-06T11:12:00;1.35;;;0.43;;
77705;SDS011;66874;45.274;5.880;2024-03-06T11:14:25;2.47;;;0.77;;
77705;SDS011;66874;45.274;5.880;2024-03-06T11:16:58;1.90;;;0.60;;
77705;SDS011;66874;45.274;5.880;2024-03-06T11:19:26;1.67;;;0.40;;
77705;SDS011;66874;45.274;5.880;2024-03-06T11:21:51;2.58;;;0.50;;
77705;SDS011;66874;45.274;5.880;2024-03-06T11:24:20;1.02;;;0.50;;
77705;SDS011;66874;45.274;5.880;2024-03-06T11:26:54;1.00;;;0.50;;
77705;SDS011;66874;45.274;5.880;2024-03-06T11:29:26;0.88;;;0.43;;
77705;SDS011;66874;45.274;5.880;2024-03-06T11:32:00;1.60;;;0.50;;
77705;SDS011;66874;45.274;5.880;2024-03-06T11:34:28;1.63;;;0.45;;
77705;SDS011;66874;45.274;5.880;2024-03-06T11:36:58;1.17;;;0.43;;
77705;SDS011;66874;45.274;5.880;2024-03-06T11:39:27;0.98;;;0.40;;
77705;SDS011;66874;45.274;5.880;2024-03-06T11:41:59;2.05;;;0.60;;
77705;SDS011;66874;45.274;5.880;2024-03-06T11:44:24;1.00;;;0.50;;
77705;SDS011;66874;45.274;5.880;2024-03-06T11:49:22;4.15;;;1.08;;
77705;SDS011;66874;45.274;5.880;2024-03-06T11:52:12;2.47;;;0.75;;
77705;SDS011;66874;45.274;5.880;2024-03-06T11:54:37;2.35;;;0.47;;
77705;SDS011;66874;45.274;5.880;2024-03-06T11:57:03;0.75;;;0.40;;
77705;SDS011;66874;45.274;5.880;2024-03-06T12:02:01;1.15;;;0.60;;
77705;SDS011;66874;45.274;5.880;2024-03-06T12:04:29;1.15;;;0.70;;
77705;SDS011;66874;45.274;5.880;2024-03-06T12:09:25;1.13;;;0.80;;
77705;SDS011;66874;45.274;5.880;2024-03-06T12:11:50;2.65;;;0.57;;
77705;SDS011;66874;45.274;5.880;2024-03-06T12:14:19;2.58;;;0.55;;
77705;SDS011;66874;45.274;5.880;2024-03-06T12:16:55;1.98;;;0.55;;
77705;SDS011;66874;45.274;5.880;2024-03-06T12:19:22;1.75;;;0.60;;
77705;SDS011;66874;45.274;5.880;2024-03-06T12:21:48;0.80;;;0.50;;
77705;SDS011;66874;45.274;5.880;2024-03-06T12:24:15;1.92;;;0.50;;
77705;SDS011;66874;45.274;5.880;2024-03-06T12:26:41;1.60;;;0.60;;
77705;SDS011;66874;45.274;5.880;2024-03-06T12:29:07;1.65;;;0.70;;
77705;SDS011;66874;45.274;5.880;2024-03-06T12:31:34;1.80;;;0.50;;
77705;SDS011;66874;45.274;5.880;2024-03-06T12:34:01;0.95;;;0.50;;
77705;SDS011;66874;45.274;5.880;2024-03-06T12:36:27;4.25;;;0.40;;
77705;SDS011;66874;45.274;5.880;2024-03-06T12:41:20;1.88;;;0.50;;
77705;SDS011;66874;45.274;5.880;2024-03-06T12:43:46;0.45;;;0.40;;
77705;SDS011;66874;45.274;5.880;2024-03-06T12:46:11;1.55;;;0.63;;
77705;SDS011;66874;45.274;5.880;2024-03-06T12:48:37;1.08;;;0.50;;
77705;SDS011;66874;45.274;5.880;2024-03-06T12:51:02;0.52;;;0.38;;
77705;SDS011;66874;45.274;5.880;2024-03-06T12:53:29;2.08;;;0.65;;
77705;SDS011;66874;45.274;5.880;2024-03-06T12:55:56;0.47;;;0.40;;
77705;SDS011;66874;45.274;5.880;2024-03-06T12:58:21;2.30;;;0.55;;
77705;SDS011;66874;45.274;5.880;2024-03-06T13:00:46;1.17;;;1.05;;
77705;SDS011;66874;45.274;5.880;2024-03-06T13:03:12;1.40;;;0.40;;
77705;SDS011;66874;45.274;5.880;2024-03-06T13:05:37;0.30;;;0.30;;
77705;SDS011;66874;45.274;5.880;2024-03-06T13:08:03;2.22;;;0.68;;
77705;SDS011;66874;45.274;5.880;2024-03-06T13:10:28;0.30;;;0.30;;
77705;SDS011;66874;45.274;5.880;2024-03-06T13:12:54;0.90;;;0.32;;
77705;SDS011;66874;45.274;5.880;2024-03-06T13:15:19;0.52;;;0.32;;
77705;SDS011;66874;45.274;5.880;2024-03-06T13:17:45;2.10;;;0.50;;
77705;SDS011;66874;45.274;5.880;2024-03-06T13:20:10;0.38;;;0.20;;
77705;SDS011;66874;45.274;5.880;2024-03-06T13:22:39;1.13;;;0.47;;
77705;SDS011;66874;45.274;5.880;2024-03-06T13:25:05;1.17;;;0.40;;
77705;SDS011;66874;45.274;5.880;2024-03-06T13:27:31;1.95;;;0.35;;
77705;SDS011;66874;45.274;5.880;2024-03-06T13:29:57;1.45;;;0.30;;
77705;SDS011;66874;45.274;5.880;2024-03-06T13:32:23;1.67;;;0.50;;
77705;SDS011;66874;45.274;5.880;2024-03-06T13:34:48;1.15;;;0.47;;
77705;SDS011;66874;45.274;5.880;2024-03-06T13:37:14;0.90;;;0.40;;
77705;SDS011;66874;45.274;5.880;2024-03-06T13:39:40;1.20;;;0.40;;
77705;SDS011;66874;45.274;5.880;2024-03-06T13:42:06;0.80;;;0.50;;
77705;SDS011;66874;45.274;5.880;2024-03-06T13:44:33;0.97;;;0.40;;
77705;SDS011;66874;45.274;5.880;2024-03-06T13:47:00;1.27;;;0.82;;
77705;SDS011;66874;45.274;5.880;2024-03-06T13:52:05;2.13;;;0.70;;
77705;SDS011;66874;45.274;5.880;2024-03-06T13:54:32;3.03;;;0.47;;
77705;SDS011;66874;45.274;5.880;2024-03-06T13:56:58;0.60;;;0.38;;
77705;SDS011;66874;45.274;5.880;2024-03-06T13:59:28;1.20;;;0.35;;
77705;SDS011;66874;45.274;5.880;2024-03-06T14:01:55;1.48;;;0.52;;
77705;SDS011;66874;45.274;5.880;2024-03-06T14:04:21;0.95;;;0.50;;
77705;SDS011;66874;45.274;5.880;2024-03-06T14:06:46;2.97;;;0.75;;
77705;SDS011;66874;45.274;5.880;2024-03-06T14:09:13;2.17;;;0.82;;
77705;SDS011;66874;45.274;5.880;2024-03-06T14:11:39;0.38;;;0.38;;
77705;SDS011;66874;45.274;5.880;2024-03-06T14:14:05;0.50;;;0.30;;
77705;SDS011;66874;45.274;5.880;2024-03-06T14:16:31;1.67;;;0.30;;
77705;SDS011;66874;45.274;5.880;2024-03-06T14:18:56;0.57;;;0.30;;
77705;SDS011;66874;45.274;5.880;2024-03-06T14:21:22;1.13;;;0.50;;
77705;SDS011;66874;45.274;5.880;2024-03-06T14:23:47;0.57;;;0.50;;
77705;SDS011;66874;45.274;5.880;2024-03-06T14:26:13;0.70;;;0.40;;
77705;SDS011;66874;45.274;5.880;2024-03-06T14:28:38;0.52;;;0.40;;
77705;SDS011;66874;45.274;5.880;2024-03-06T14:31:05;1.42;;;0.50;;
77705;SDS011;66874;45.274;5.880;2024-03-06T14:33:30;1.60;;;0.50;;
77705;SDS011;66874;45.274;5.880;2024-03-06T14:35:56;0.35;;;0.30;;
77705;SDS011;66874;45.274;5.880;2024-03-06T14:38:21;1.67;;;0.40;;
77705;SDS011;66874;45.274;5.880;2024-03-06T14:40:47;0.68;;;0.40;;
77705;SDS011;66874;45.274;5.880;2024-03-06T14:43:12;0.77;;;0.30;;
77705;SDS011;66874;45.274;5.880;2024-03-06T14:45:38;0.35;;;0.30;;
77705;SDS011;66874;45.274;5.880;2024-03-06T14:48:07;0.88;;;0.40;;
77705;SDS011;66874;45.274;5.880;2024-03-06T14:50:33;2.75;;;0.73;;
77705;SDS011;66874;45.274;5.880;2024-03-06T14:52:58;1.83;;;0.88;;
77705;SDS011;66874;45.274;5.880;2024-03-06T14:55:24;1.67;;;0.40;;
77705;SDS011;66874;45.274;5.880;2024-03-06T14:57:49;2.65;;;0.55;;